createdAt,value
2018-12-01T00:00:52.936Z,62.50
2018-12-01T00:03:22.696Z,62.50
2018-12-01T00:05:57.978Z,62.60
2018-12-01T00:08:27.782Z,62.70
2018-12-01T00:10:57.421Z,62.80
2018-12-01T00:13:27.266Z,63.10
2018-12-01T00:15:56.952Z,62.80
2018-12-01T00:18:26.548Z,63.00
2018-12-01T00:20:56.436Z,63.00
2018-12-01T00:23:26.228Z,63.00
2018-12-01T00:25:55.966Z,62.90
2018-12-01T00:28:25.576Z,62.50
2018-12-01T00:30:55.491Z,62.40
2018-12-01T00:33:24.960Z,62.40
2018-12-01T00:35:54.730Z,62.30
2018-12-01T00:38:24.162Z,62.30
2018-12-01T00:40:53.826Z,62.30
2018-12-01T00:43:23.413Z,62.20
2018-12-01T00:45:53.047Z,62.20
2018-12-01T00:48:22.797Z,62.20
2018-12-01T00:50:52.376Z,62.40
2018-12-01T00:53:21.924Z,62.20
2018-12-01T00:55:51.566Z,62.40
2018-12-01T00:58:21.182Z,62.60
2018-12-01T01:00:50.716Z,62.50
2018-12-01T01:03:26.899Z,63.10
2018-12-01T01:05:56.482Z,63.00
2018-12-01T01:08:26.155Z,63.20
2018-12-01T01:10:55.876Z,63.20
2018-12-01T01:13:25.553Z,63.10
2018-12-01T01:15:55.185Z,64.10
2018-12-01T01:18:24.797Z,63.10
2018-12-01T01:20:54.391Z,63.60
2018-12-01T01:23:23.979Z,63.10
2018-12-01T01:25:54.019Z,63.10
2018-12-01T01:28:23.755Z,63.10
2018-12-01T01:30:53.440Z,63.30
2018-12-01T01:33:29.340Z,64.00
2018-12-01T01:35:59.038Z,64.10
2018-12-01T01:38:29.023Z,64.90
2018-12-01T01:41:03.594Z,65.30
2018-12-01T01:43:33.137Z,65.60
2018-12-01T01:46:02.765Z,65.10
2018-12-01T01:48:32.367Z,65.00
2018-12-01T01:51:02.002Z,65.50
2018-12-01T01:53:31.585Z,65.60
2018-12-01T01:56:01.227Z,65.10
2018-12-01T01:58:31.103Z,65.30
2018-12-01T02:01:00.707Z,65.20
2018-12-01T02:03:30.324Z,65.30
2018-12-01T02:05:59.916Z,65.70
2018-12-01T02:08:29.435Z,65.40
2018-12-01T02:10:59.452Z,65.30
2018-12-01T02:13:29.086Z,65.50
2018-12-01T02:15:58.703Z,65.70
2018-12-01T02:18:28.560Z,65.40
2018-12-01T02:20:58.360Z,65.10
2018-12-01T02:23:28.123Z,65.60
2018-12-01T02:25:57.753Z,65.80
2018-12-01T02:28:27.264Z,65.70
2018-12-01T02:30:56.814Z,65.70
2018-12-01T02:33:29.291Z,65.50
2018-12-01T02:35:58.938Z,65.70
2018-12-01T02:38:28.791Z,65.60
2018-12-01T02:40:58.312Z,65.20
2018-12-01T02:43:28.340Z,65.60
2018-12-01T02:46:08.975Z,65.90
2018-12-01T02:48:38.822Z,65.80
2018-12-01T02:51:08.592Z,65.90
2018-12-01T02:53:38.158Z,65.70
2018-12-01T02:56:07.748Z,65.30
2018-12-01T02:58:37.545Z,65.90
2018-12-01T03:01:07.270Z,66.70
2018-12-01T03:03:37.190Z,67.00
2018-12-01T03:06:06.799Z,67.20
2018-12-01T03:08:36.317Z,67.10
2018-12-01T03:11:05.954Z,67.00
2018-12-01T03:13:35.614Z,66.90
2018-12-01T03:16:05.584Z,66.90
2018-12-01T03:18:35.447Z,66.90
2018-12-01T03:21:05.359Z,67.20
2018-12-01T03:23:35.050Z,67.10
2018-12-01T03:26:07.005Z,66.80
2018-12-01T03:28:36.637Z,66.60
2018-12-01T03:31:06.234Z,66.50
2018-12-01T03:33:35.875Z,66.30
2018-12-01T03:36:05.449Z,66.30
2018-12-01T03:38:34.961Z,66.50
2018-12-01T03:41:04.730Z,67.40
2018-12-01T03:43:34.269Z,67.30
2018-12-01T03:46:03.837Z,67.20
2018-12-01T03:48:33.499Z,67.40
2018-12-01T03:51:03.140Z,67.40
2018-12-01T03:53:32.948Z,67.30
2018-12-01T03:56:02.544Z,67.80
2018-12-01T03:58:32.149Z,68.10
2018-12-01T04:01:01.808Z,68.50
2018-12-01T04:03:32.075Z,68.70
2018-12-01T04:06:01.573Z,69.00
2018-12-01T04:08:31.210Z,69.20
2018-12-01T04:11:00.807Z,69.00
2018-12-01T04:13:30.459Z,69.20
2018-12-01T04:16:00.169Z,69.90
2018-12-01T04:18:29.698Z,70.10
2018-12-01T04:20:59.339Z,69.70
2018-12-01T04:23:28.917Z,69.50
2018-12-01T04:25:58.559Z,69.60
2018-12-01T04:28:28.316Z,69.50
2018-12-01T04:30:58.048Z,69.20
2018-12-01T04:33:27.532Z,69.30
2018-12-01T04:35:57.270Z,69.30
2018-12-01T04:38:26.892Z,69.80
2018-12-01T04:40:56.488Z,69.80
2018-12-01T04:43:26.290Z,70.00
2018-12-01T04:45:55.878Z,69.90
2018-12-01T04:48:25.642Z,69.80
2018-12-01T04:50:55.078Z,69.70
2018-12-01T04:53:24.852Z,69.30
2018-12-01T04:55:54.618Z,69.30
2018-12-01T04:58:24.290Z,69.20
2018-12-01T05:00:54.226Z,69.30
2018-12-01T05:03:23.891Z,69.60
2018-12-01T05:05:53.508Z,69.50
2018-12-01T05:08:23.129Z,69.60
2018-12-01T05:10:52.683Z,69.70
2018-12-01T05:13:22.302Z,69.70
2018-12-01T05:15:51.908Z,69.60
2018-12-01T05:18:21.558Z,70.00
2018-12-01T05:20:51.106Z,70.30
2018-12-01T05:23:20.745Z,70.80
2018-12-01T05:25:50.511Z,70.80
2018-12-01T05:28:20.004Z,70.90
2018-12-01T05:30:49.534Z,70.90
2018-12-01T05:33:19.172Z,71.00
2018-12-01T05:35:48.739Z,71.20
2018-12-01T05:38:18.478Z,71.30
2018-12-01T05:40:48.001Z,71.30
2018-12-01T05:43:17.594Z,71.40
2018-12-01T05:45:47.042Z,71.50
2018-12-01T05:48:16.567Z,71.70
2018-12-01T05:50:45.981Z,72.10
2018-12-01T05:53:15.921Z,72.70
2018-12-01T05:55:45.638Z,72.70
2018-12-01T05:58:15.134Z,73.00
2018-12-01T06:00:44.755Z,73.30
2018-12-01T06:03:14.469Z,74.30
2018-12-01T06:05:43.937Z,74.30
2018-12-01T06:08:13.747Z,74.30
2018-12-01T06:10:43.259Z,74.30
2018-12-01T06:13:13.089Z,74.10
2018-12-01T06:15:42.962Z,74.00
2018-12-01T06:18:12.691Z,74.00
2018-12-01T06:20:42.743Z,73.70
2018-12-01T06:23:12.416Z,73.60
2018-12-01T06:25:42.178Z,73.40
2018-12-01T06:28:12.031Z,73.40
2018-12-01T06:30:41.565Z,73.40
2018-12-01T06:33:11.163Z,73.20
2018-12-01T06:35:40.793Z,73.00
2018-12-01T06:38:10.473Z,72.90
2018-12-01T06:40:40.121Z,73.20
2018-12-01T06:43:09.725Z,73.20
2018-12-01T06:45:39.293Z,73.50
2018-12-01T06:48:09.111Z,73.40
2018-12-01T06:50:39.133Z,73.00
2018-12-01T06:53:09.066Z,73.40
2018-12-01T06:55:38.714Z,73.70
2018-12-01T06:58:08.232Z,73.80
2018-12-01T07:00:37.934Z,74.40
2018-12-01T07:03:07.399Z,75.00
2018-12-01T07:05:36.996Z,74.50
2018-12-01T07:08:06.806Z,74.60
2018-12-01T07:10:36.660Z,74.70
2018-12-01T07:13:07.129Z,74.80
2018-12-01T07:15:37.775Z,74.70
2018-12-01T07:18:18.353Z,74.70
2018-12-01T07:20:47.948Z,74.50
2018-12-01T07:23:17.531Z,74.70
2018-12-01T07:25:47.119Z,74.80
2018-12-01T07:28:16.779Z,74.70
2018-12-01T07:30:46.333Z,74.10
2018-12-01T07:33:16.271Z,73.10
2018-12-01T07:35:45.780Z,72.70
2018-12-01T07:38:15.525Z,72.40
2018-12-01T07:40:45.064Z,72.30
2018-12-01T07:43:14.706Z,72.00
2018-12-01T07:45:44.375Z,71.00
2018-12-01T07:48:13.817Z,70.70
2018-12-01T07:50:43.691Z,70.70
2018-12-01T07:53:17.408Z,70.50
2018-12-01T07:55:43.267Z,70.60
2018-12-01T07:58:12.910Z,71.30
2018-12-01T08:00:42.655Z,71.40
2018-12-01T08:03:12.117Z,71.60
2018-12-01T08:05:41.816Z,71.30
2018-12-01T08:08:11.497Z,70.10
2018-12-01T08:10:41.089Z,70.10
2018-12-01T08:13:11.265Z,70.30
2018-12-01T08:15:40.863Z,69.90
2018-12-01T08:18:10.513Z,69.30
2018-12-01T08:20:39.993Z,69.30
2018-12-01T08:23:09.922Z,68.60
2018-12-01T08:25:39.518Z,67.90
2018-12-01T08:28:10.337Z,67.40
2018-12-01T08:30:40.424Z,67.00
2018-12-01T08:33:10.309Z,66.50
2018-12-01T08:35:40.053Z,65.90
2018-12-01T08:38:09.821Z,66.00
2018-12-01T08:40:39.754Z,65.70
2018-12-01T08:43:09.336Z,65.30
2018-12-01T08:45:38.991Z,65.50
2018-12-01T08:48:09.136Z,65.30
2018-12-01T08:50:39.187Z,65.00
2018-12-01T08:53:12.610Z,64.90
2018-12-01T08:55:44.057Z,64.30
2018-12-01T08:58:13.891Z,64.60
2018-12-01T09:00:43.547Z,64.20
2018-12-01T09:03:29.317Z,64.60
2018-12-01T09:05:59.909Z,64.50
2018-12-01T09:08:31.985Z,64.60
2018-12-01T09:11:01.921Z,63.90
2018-12-01T09:13:33.653Z,64.20
2018-12-01T09:16:03.329Z,64.10
2018-12-01T09:18:33.032Z,63.70
2018-12-01T09:21:02.518Z,63.30
2018-12-01T09:23:32.281Z,63.30
2018-12-01T09:26:01.733Z,63.00
2018-12-01T09:30:16.263Z,62.60
2018-12-01T09:32:45.723Z,63.40
2018-12-01T09:35:15.370Z,63.20
2018-12-01T09:37:45.253Z,63.50
2018-12-01T09:40:16.561Z,62.80
2018-12-01T09:42:46.730Z,61.80
2018-12-01T09:45:21.280Z,61.60
2018-12-01T09:47:51.463Z,61.50
2018-12-01T09:50:21.079Z,61.70
2018-12-01T09:52:53.509Z,61.60
2018-12-01T09:55:24.191Z,61.10
2018-12-01T09:57:54.060Z,60.90
2018-12-01T10:00:31.188Z,60.70
2018-12-01T10:03:03.946Z,61.30
2018-12-01T10:05:34.115Z,61.80
2018-12-01T10:08:03.985Z,61.20
2018-12-01T10:10:33.932Z,60.90
2018-12-01T10:13:03.898Z,61.30
2018-12-01T10:15:35.807Z,61.80
2018-12-01T10:18:06.747Z,62.10
2018-12-01T10:20:36.520Z,61.60
2018-12-01T10:23:11.241Z,60.90
2018-12-01T10:25:41.578Z,61.20
2018-12-01T10:28:11.758Z,61.20
2018-12-01T10:30:41.468Z,60.50
2018-12-01T10:33:11.343Z,60.80
2018-12-01T10:35:40.910Z,60.60
2018-12-01T10:38:15.815Z,60.40
2018-12-01T10:40:45.499Z,60.00
2018-12-01T10:43:15.029Z,59.50
2018-12-01T10:45:44.870Z,60.00
2018-12-01T10:48:14.553Z,59.70
2018-12-01T10:50:44.174Z,59.60
2018-12-01T10:53:13.733Z,59.40
2018-12-01T10:55:43.413Z,60.20
2018-12-01T10:58:16.634Z,59.50
2018-12-01T11:00:52.224Z,59.20
2018-12-01T11:03:27.944Z,58.90
2018-12-01T11:05:58.431Z,58.80
2018-12-01T11:08:28.070Z,58.80
2018-12-01T11:10:57.910Z,58.50
2018-12-01T11:13:27.651Z,58.60
2018-12-01T11:15:57.439Z,57.90
2018-12-01T11:18:27.370Z,58.00
2018-12-01T11:20:56.996Z,57.90
2018-12-01T11:23:26.627Z,58.10
2018-12-01T11:25:56.395Z,58.50
2018-12-01T11:28:26.095Z,58.80
2018-12-01T11:30:55.955Z,58.70
2018-12-01T11:33:25.653Z,58.80
2018-12-01T11:35:55.502Z,58.70
2018-12-01T11:38:25.339Z,58.90
2018-12-01T11:40:55.065Z,58.10
2018-12-01T11:43:24.713Z,57.90
2018-12-01T11:45:54.367Z,57.80
2018-12-01T11:48:23.886Z,58.80
2018-12-01T11:50:53.684Z,59.20
2018-12-01T11:53:23.527Z,59.20
2018-12-01T11:55:53.628Z,59.20
2018-12-01T11:58:23.257Z,59.00
2018-12-01T12:00:52.735Z,59.00
2018-12-01T12:03:22.513Z,58.90
2018-12-01T12:05:52.133Z,58.70
2018-12-01T12:08:22.826Z,58.80
2018-12-01T12:10:52.574Z,58.00
2018-12-01T12:13:23.151Z,57.50
2018-12-01T12:15:52.888Z,57.60
2018-12-01T12:18:22.857Z,57.50
2018-12-01T12:20:53.008Z,57.10
2018-12-01T12:23:22.730Z,57.70
2018-12-01T12:25:52.525Z,57.80
2018-12-01T12:28:22.292Z,57.90
2018-12-01T12:30:52.057Z,57.80
2018-12-01T12:33:22.099Z,57.90
2018-12-01T12:35:51.656Z,57.60
2018-12-01T12:38:21.584Z,58.10
2018-12-01T12:40:51.089Z,57.80
2018-12-01T12:43:20.874Z,58.10
2018-12-01T12:45:50.896Z,58.00
2018-12-01T12:48:20.906Z,57.50
2018-12-01T12:50:53.087Z,57.90
2018-12-01T12:53:20.039Z,58.00
2018-12-01T12:55:49.641Z,57.30
2018-12-01T12:58:19.231Z,58.30
2018-12-01T13:00:48.907Z,57.80
2018-12-01T13:03:18.755Z,57.70
2018-12-01T13:05:48.639Z,57.70
2018-12-01T13:08:19.574Z,57.40
2018-12-01T13:10:52.192Z,57.50
2018-12-01T13:13:22.003Z,57.60
2018-12-01T13:15:52.160Z,58.00
2018-12-01T13:18:21.906Z,58.30
2018-12-01T13:20:51.704Z,58.10
2018-12-01T13:23:21.480Z,58.90
2018-12-01T13:25:51.285Z,58.90
2018-12-01T13:28:22.542Z,59.20
2018-12-01T13:30:55.557Z,58.20
2018-12-01T13:33:26.081Z,58.50
2018-12-01T13:35:56.748Z,58.70
2018-12-01T13:38:26.830Z,58.90
2018-12-01T13:40:56.572Z,59.30
2018-12-01T13:43:26.788Z,59.40
2018-12-01T13:45:56.498Z,59.90
2018-12-01T13:48:26.583Z,59.90
2018-12-01T13:50:56.220Z,60.30
2018-12-01T13:53:25.938Z,60.90
2018-12-01T13:55:55.762Z,60.90
2018-12-01T13:58:25.466Z,61.00
2018-12-01T14:00:55.374Z,61.10
2018-12-01T14:03:25.206Z,61.50
2018-12-01T14:05:55.568Z,61.80
2018-12-01T14:08:26.650Z,62.10
2018-12-01T14:10:56.627Z,62.10
2018-12-01T14:13:26.440Z,62.20
2018-12-01T14:15:56.378Z,62.20
2018-12-01T14:18:26.272Z,62.40
2018-12-01T14:20:56.454Z,62.40
2018-12-01T14:23:26.481Z,62.10
2018-12-01T14:25:56.306Z,62.30
2018-12-01T14:28:26.296Z,62.40
2018-12-01T14:30:56.382Z,62.50
2018-12-01T14:33:26.031Z,62.80
2018-12-01T14:35:55.977Z,62.50
2018-12-01T14:38:25.882Z,63.00
2018-12-01T14:40:55.803Z,63.50
2018-12-01T14:43:25.685Z,64.00
2018-12-01T14:45:55.359Z,64.10
2018-12-01T14:48:25.223Z,63.60
2018-12-01T14:50:55.360Z,63.90
2018-12-01T14:53:25.192Z,63.90
2018-12-01T14:55:54.884Z,64.10
2018-12-01T14:58:24.373Z,65.00
2018-12-01T15:00:54.131Z,65.40
2018-12-01T15:03:23.966Z,65.90
2018-12-01T15:05:53.884Z,65.60
2018-12-01T15:08:23.508Z,65.40
2018-12-01T15:10:53.495Z,65.60
2018-12-01T15:13:23.795Z,65.60
2018-12-01T15:15:53.773Z,65.50
2018-12-01T15:18:23.724Z,65.30
2018-12-01T15:20:53.473Z,65.40
2018-12-01T15:23:23.824Z,65.40
2018-12-01T15:25:53.765Z,65.40
2018-12-01T15:28:23.522Z,65.60
2018-12-01T15:30:53.176Z,65.80
2018-12-01T15:33:22.900Z,65.60
2018-12-01T15:35:52.520Z,65.60
2018-12-01T15:38:22.499Z,65.60
2018-12-01T15:40:52.917Z,65.50
2018-12-01T15:43:22.721Z,65.30
2018-12-01T15:45:54.224Z,65.20
2018-12-01T15:48:24.068Z,65.20
2018-12-01T15:50:53.708Z,65.10
2018-12-01T15:53:23.712Z,65.20
2018-12-01T15:55:53.474Z,65.30
2018-12-01T15:58:23.138Z,65.30
2018-12-01T16:00:52.970Z,65.30
2018-12-01T16:03:22.968Z,65.30
2018-12-01T16:05:52.841Z,65.80
2018-12-01T16:08:22.793Z,66.10
2018-12-01T16:10:52.277Z,66.20
2018-12-01T16:13:23.054Z,66.00
2018-12-01T16:15:59.019Z,66.00
2018-12-01T16:18:28.792Z,65.70
2018-12-01T16:20:58.842Z,65.60
2018-12-01T16:23:28.435Z,65.50
2018-12-01T16:25:58.325Z,65.40
2018-12-01T16:28:27.991Z,65.30
2018-12-01T16:30:57.743Z,65.20
2018-12-01T16:33:28.042Z,65.20
2018-12-01T16:35:59.134Z,65.40
2018-12-01T16:38:30.964Z,65.00
2018-12-01T16:41:11.270Z,65.50
2018-12-01T16:43:40.882Z,65.80
2018-12-01T16:46:10.563Z,65.80
2018-12-01T16:48:40.322Z,65.80
2018-12-01T16:51:10.876Z,66.30
2018-12-01T16:53:42.025Z,66.80
2018-12-01T16:56:11.961Z,67.20
2018-12-01T16:58:41.596Z,67.40
2018-12-01T17:01:11.143Z,67.50
2018-12-01T17:03:40.926Z,67.30
2018-12-01T17:06:12.981Z,68.20
2018-12-01T17:08:42.945Z,67.60
2018-12-01T17:11:12.507Z,68.00
2018-12-01T17:13:42.551Z,67.50
2018-12-01T17:16:12.262Z,67.50
2018-12-01T17:18:41.846Z,67.30
2018-12-01T17:21:11.649Z,67.40
2018-12-01T17:23:41.283Z,67.50
2018-12-01T17:26:11.243Z,67.30
2018-12-01T17:28:41.092Z,67.40
2018-12-01T17:31:10.841Z,67.20
2018-12-01T17:33:40.436Z,67.30
2018-12-01T17:36:10.245Z,67.00
2018-12-01T17:38:39.855Z,67.00
2018-12-01T17:41:11.747Z,67.30
2018-12-01T17:43:52.466Z,67.50
2018-12-01T17:46:22.213Z,67.50
2018-12-01T17:48:51.923Z,67.80
2018-12-01T17:51:21.552Z,67.80
2018-12-01T17:53:53.103Z,67.90
2018-12-01T17:56:23.059Z,67.80
2018-12-01T17:58:52.675Z,68.50
2018-12-01T18:01:22.305Z,68.60
2018-12-01T18:03:51.878Z,68.60
2018-12-01T18:06:21.671Z,68.40
2018-12-01T18:08:51.551Z,68.30
2018-12-01T18:11:21.115Z,68.10
2018-12-01T18:13:51.043Z,68.50
2018-12-01T18:16:20.813Z,68.60
2018-12-01T18:18:50.541Z,68.60
2018-12-01T18:21:20.248Z,68.40
2018-12-01T18:23:49.995Z,68.40
2018-12-01T18:26:19.591Z,68.10
2018-12-01T18:28:50.603Z,68.10
2018-12-01T18:31:22.808Z,68.20
2018-12-01T18:33:56.925Z,68.00
2018-12-01T18:36:26.728Z,67.90
2018-12-01T18:38:56.921Z,68.50
2018-12-01T18:41:26.465Z,68.90
2018-12-01T18:43:56.075Z,68.70
2018-12-01T18:46:25.744Z,68.90
2018-12-01T18:48:55.363Z,68.90
2018-12-01T18:51:25.203Z,68.60
2018-12-01T18:53:54.987Z,69.10
2018-12-01T18:56:24.609Z,69.20
2018-12-01T18:58:54.473Z,69.40
2018-12-01T19:01:23.943Z,69.20
2018-12-01T19:03:53.595Z,69.30
2018-12-01T19:06:23.731Z,68.90
2018-12-01T19:08:53.442Z,68.80
2018-12-01T19:11:23.014Z,68.60
2018-12-01T19:13:53.235Z,68.20
2018-12-01T19:16:22.815Z,68.20
2018-12-01T19:18:52.456Z,69.30
2018-12-01T19:21:22.134Z,69.00
2018-12-01T19:23:51.917Z,68.80
2018-12-01T19:26:21.904Z,68.50
2018-12-01T19:28:51.753Z,68.50
2018-12-01T19:31:21.459Z,68.80
2018-12-01T19:33:51.095Z,68.50
2018-12-01T19:36:20.815Z,67.90
2018-12-01T19:38:50.535Z,68.40
2018-12-01T19:41:20.316Z,68.30
2018-12-01T19:43:49.839Z,68.90
2018-12-01T19:46:19.470Z,68.20
2018-12-01T19:48:49.043Z,68.00
2018-12-01T19:51:18.622Z,68.00
2018-12-01T19:53:48.365Z,67.70
2018-12-01T19:56:18.022Z,68.00
2018-12-01T19:58:47.980Z,67.90
2018-12-01T20:01:17.606Z,67.80
2018-12-01T20:03:47.338Z,67.30
2018-12-01T20:06:17.154Z,67.70
2018-12-01T20:08:46.882Z,67.10
2018-12-01T20:11:16.295Z,67.20
2018-12-01T20:13:46.738Z,66.80
2018-12-01T20:16:27.159Z,66.60
2018-12-01T20:18:57.042Z,66.70
2018-12-01T20:21:27.205Z,66.60
2018-12-01T20:23:57.171Z,66.50
2018-12-01T20:26:26.825Z,66.50
2018-12-01T20:28:56.573Z,67.10
2018-12-01T20:31:26.169Z,67.20
2018-12-01T20:33:57.412Z,67.10
2018-12-01T20:36:37.232Z,67.20
2018-12-01T20:39:15.594Z,67.10
2018-12-01T20:41:45.298Z,67.20
2018-12-01T20:44:15.375Z,66.90
2018-12-01T20:46:45.028Z,66.70
2018-12-01T20:49:14.661Z,66.80
2018-12-01T20:51:44.146Z,67.10
2018-12-01T20:54:35.369Z,66.90
2018-12-01T20:57:12.019Z,66.80
2018-12-01T20:59:41.900Z,66.80
2018-12-01T21:02:11.727Z,67.00
2018-12-01T21:04:41.639Z,67.20
2018-12-01T21:07:11.552Z,67.20
2018-12-01T21:09:41.477Z,67.40
2018-12-01T21:12:12.213Z,67.10
2018-12-01T21:14:42.090Z,67.50
2018-12-01T21:17:11.651Z,67.10
2018-12-01T21:19:41.356Z,66.90
2018-12-01T21:22:11.401Z,66.90
2018-12-01T21:24:41.011Z,68.20
2018-12-01T21:27:10.573Z,69.80
2018-12-01T21:29:40.553Z,69.40
2018-12-01T21:32:10.241Z,69.80
2018-12-01T21:34:40.043Z,69.70
2018-12-01T21:37:09.649Z,69.10
2018-12-01T21:39:39.265Z,68.40
2018-12-01T21:42:08.877Z,68.10
2018-12-01T21:44:38.723Z,68.00
2018-12-01T21:47:08.567Z,68.30
2018-12-01T21:49:38.379Z,68.00
2018-12-01T21:52:08.211Z,67.90
2018-12-01T21:54:38.118Z,69.30
2018-12-01T21:57:07.749Z,70.00
2018-12-01T21:59:37.343Z,68.90
2018-12-01T22:02:07.772Z,69.60
2018-12-01T22:04:37.888Z,69.20
2018-12-01T22:07:07.525Z,68.90
2018-12-01T22:09:37.031Z,68.90
2018-12-01T22:12:06.732Z,68.70
2018-12-01T22:14:36.372Z,68.90
2018-12-01T22:17:06.937Z,68.80
2018-12-01T22:19:36.650Z,69.00
2018-12-01T22:22:06.681Z,69.40
2018-12-01T22:24:36.206Z,69.60
2018-12-01T22:27:06.104Z,69.00
2018-12-01T22:29:36.066Z,68.90
2018-12-01T22:32:06.037Z,68.90
2018-12-01T22:34:35.668Z,68.60
2018-12-01T22:37:05.432Z,69.00
2018-12-01T22:39:35.126Z,68.80
2018-12-01T22:42:04.664Z,68.90
2018-12-01T22:44:34.424Z,69.30
2018-12-01T22:47:04.316Z,69.00
2018-12-01T22:49:33.858Z,69.30
2018-12-01T22:52:03.533Z,69.00
2018-12-01T22:54:33.428Z,69.50
2018-12-01T22:57:03.342Z,69.70
2018-12-01T22:59:32.954Z,69.30
2018-12-01T23:02:02.454Z,69.00
2018-12-01T23:04:32.350Z,69.00
2018-12-01T23:07:02.268Z,69.60
2018-12-01T23:09:31.975Z,70.70
2018-12-01T23:12:01.550Z,70.60
2018-12-01T23:14:31.490Z,71.00
2018-12-01T23:17:01.356Z,71.00
2018-12-01T23:19:31.044Z,71.50
2018-12-01T23:22:00.526Z,71.70
2018-12-01T23:24:30.262Z,72.30
2018-12-01T23:27:00.120Z,72.10
2018-12-01T23:29:29.704Z,72.70
2018-12-01T23:31:59.308Z,72.70
2018-12-01T23:34:28.980Z,72.80
2018-12-01T23:36:58.689Z,73.10
2018-12-01T23:39:28.431Z,73.10
2018-12-01T23:41:58.093Z,72.90
2018-12-01T23:44:29.343Z,73.70
2018-12-01T23:46:59.081Z,73.90
2018-12-01T23:49:28.760Z,74.30
2018-12-01T23:51:58.402Z,74.00
2018-12-01T23:54:27.999Z,74.20
2018-12-01T23:56:57.504Z,74.60
2018-12-01T23:59:27.068Z,75.30
